createdAt,value
2023-04-15T00:02:21.620Z,99447.13
2023-04-15T00:05:06.882Z,99459.19
2023-04-15T00:07:52.147Z,99455.41
2023-04-15T00:10:37.491Z,99441.66
2023-04-15T00:13:22.615Z,99424.69
2023-04-15T00:16:08.956Z,99424.69
2023-04-15T00:18:54.221Z,99435.34
2023-04-15T00:21:39.368Z,99438.75
2023-04-15T00:24:27.625Z,99424.06
2023-04-15T00:27:12.926Z,99425.09
2023-04-15T00:29:58.209Z,99413.13
2023-04-15T00:32:43.639Z,99408.38
2023-04-15T00:35:32.032Z,99413.88
2023-04-15T00:38:20.318Z,99423.66
2023-04-15T00:41:05.461Z,99430.38
2023-04-15T00:43:50.945Z,99426.00
2023-04-15T00:46:37.648Z,99428.47
2023-04-15T00:49:22.973Z,99430.34
2023-04-15T00:52:08.419Z,99433.72
2023-04-15T00:54:53.649Z,99447.31
2023-04-15T00:57:40.849Z,99453.22
2023-04-15T01:00:26.379Z,99454.22
2023-04-15T01:03:12.126Z,99451.78
2023-04-15T01:05:57.489Z,99446.41
2023-04-15T01:08:43.309Z,99445.69
2023-04-15T01:11:30.207Z,99447.13
2023-04-15T01:14:15.560Z,99452.31
2023-04-15T01:17:00.483Z,99450.41
2023-04-15T01:19:45.855Z,99454.91
2023-04-15T01:22:32.275Z,99452.38
2023-04-15T01:25:19.479Z,99445.31
2023-04-15T01:28:04.761Z,99448.59
2023-04-15T01:30:49.922Z,99452.31
2023-04-15T01:33:35.125Z,99453.31
2023-04-15T01:36:20.319Z,99460.56
2023-04-15T01:39:05.259Z,99459.72
2023-04-15T01:41:50.083Z,99460.09
2023-04-15T01:44:35.082Z,99464.22
2023-04-15T01:47:20.109Z,99471.56
2023-04-15T01:50:06.230Z,99467.03
2023-04-15T01:52:51.412Z,99467.13
2023-04-15T01:55:37.084Z,99472.06
2023-04-15T01:58:22.102Z,99478.47
2023-04-15T02:01:07.631Z,99478.53
2023-04-15T02:03:52.718Z,99477.69
2023-04-15T02:06:37.908Z,99479.09
2023-04-15T02:09:23.234Z,99478.22
2023-04-15T02:12:08.259Z,99475.81
2023-04-15T02:14:53.308Z,99469.03
2023-04-15T02:17:38.632Z,99466.91
2023-04-15T02:20:23.810Z,99466.94
2023-04-15T02:23:08.943Z,99475.97
2023-04-15T02:25:54.345Z,99475.28
2023-04-15T02:28:39.515Z,99488.66
2023-04-15T02:31:25.656Z,99492.94
2023-04-15T02:34:10.992Z,99483.81
2023-04-15T02:36:56.169Z,99501.81
2023-04-15T02:39:41.097Z,99504.22
2023-04-15T02:42:25.854Z,99504.13
2023-04-15T02:45:11.617Z,99513.81
2023-04-15T02:47:56.600Z,99507.22
2023-04-15T02:50:42.025Z,99502.78
2023-04-15T02:53:27.249Z,99506.75
2023-04-15T02:56:12.436Z,99500.34
2023-04-15T02:58:57.855Z,99492.13
2023-04-15T03:01:43.151Z,99504.75
2023-04-15T03:04:28.478Z,99490.53
2023-04-15T03:07:13.732Z,99499.81
2023-04-15T03:09:58.749Z,99498.00
2023-04-15T03:12:44.068Z,99494.13
2023-04-15T03:15:29.059Z,99491.91
2023-04-15T03:18:14.462Z,99497.69
2023-04-15T03:20:59.637Z,99507.19
2023-04-15T03:23:44.534Z,99509.47
2023-04-15T03:26:30.905Z,99506.34
2023-04-15T03:29:16.178Z,99517.78
2023-04-15T03:32:01.590Z,99520.78
2023-04-15T03:34:46.668Z,99521.91
2023-04-15T03:37:32.151Z,99534.13
2023-04-15T03:40:17.435Z,99539.44
2023-04-15T03:43:02.701Z,99540.88
2023-04-15T03:45:47.963Z,99551.00
2023-04-15T03:48:33.238Z,99542.84
2023-04-15T03:51:19.129Z,99543.00
2023-04-15T03:54:04.201Z,99545.09
2023-04-15T03:56:49.412Z,99546.97
2023-04-15T03:59:34.503Z,99559.31
2023-04-15T04:02:19.483Z,99574.97
2023-04-15T04:05:05.050Z,99557.88
2023-04-15T04:07:50.068Z,99561.34
2023-04-15T04:10:35.357Z,99569.25
2023-04-15T04:13:20.371Z,99566.28
2023-04-15T04:16:05.677Z,99564.06
2023-04-15T04:18:50.834Z,99571.75
2023-04-15T04:21:35.846Z,99578.59
2023-04-15T04:24:21.147Z,99575.91
2023-04-15T04:27:06.391Z,99570.13
2023-04-15T04:29:51.798Z,99576.84
2023-04-15T04:32:37.273Z,99576.69
2023-04-15T04:35:22.444Z,99586.53
2023-04-15T04:38:07.652Z,99578.03
2023-04-15T04:40:52.578Z,99586.41
2023-04-15T04:43:37.989Z,99592.88
2023-04-15T04:46:23.200Z,99583.94
2023-04-15T04:49:08.247Z,99586.75
2023-04-15T04:51:53.490Z,99595.84
2023-04-15T04:54:38.700Z,99593.81
2023-04-15T04:57:23.992Z,99591.13
2023-04-15T05:00:09.470Z,99590.25
2023-04-15T05:02:54.550Z,99595.97
2023-04-15T05:05:39.697Z,99589.03
2023-04-15T05:08:24.862Z,99590.34
2023-04-15T05:11:09.830Z,99599.59
2023-04-15T05:13:54.772Z,99605.66
2023-04-15T05:16:40.233Z,99606.25
2023-04-15T05:19:25.363Z,99610.25
2023-04-15T05:22:10.341Z,99614.75
2023-04-15T05:24:55.558Z,99606.09
2023-04-15T05:27:40.714Z,99617.84
2023-04-15T05:30:26.070Z,99612.47
2023-04-15T05:33:11.489Z,99611.53
2023-04-15T05:35:56.583Z,99609.47
2023-04-15T05:38:41.475Z,99611.84
2023-04-15T05:41:26.531Z,99623.94
2023-04-15T05:44:11.716Z,99617.97
2023-04-15T05:46:56.614Z,99625.03
2023-04-15T05:49:41.561Z,99628.81
2023-04-15T05:52:26.972Z,99624.09
2023-04-15T05:55:12.396Z,99630.59
2023-04-15T05:57:57.616Z,99619.03
2023-04-15T06:00:42.884Z,99625.31
2023-04-15T06:03:28.170Z,99620.25
2023-04-15T06:06:13.216Z,99621.78
2023-04-15T06:08:58.334Z,99632.84
2023-04-15T06:11:43.560Z,99631.38
2023-04-15T06:14:28.788Z,99634.75
2023-04-15T06:17:13.998Z,99631.09
2023-04-15T06:19:59.191Z,99633.16
2023-04-15T06:22:44.481Z,99632.53
2023-04-15T06:25:29.441Z,99639.72
2023-04-15T06:28:14.508Z,99637.53
2023-04-15T06:30:59.765Z,99640.69
2023-04-15T06:33:45.721Z,99650.91
2023-04-15T06:36:30.842Z,99653.38
2023-04-15T06:39:15.876Z,99656.63
2023-04-15T06:42:01.006Z,99661.25
2023-04-15T06:44:46.260Z,99664.75
2023-04-15T06:47:31.386Z,99663.94
2023-04-15T06:50:16.409Z,99673.88
2023-04-15T06:53:01.757Z,99671.47
2023-04-15T06:55:47.009Z,99675.41
2023-04-15T06:58:32.327Z,99679.41
2023-04-15T07:01:17.160Z,99677.44
2023-04-15T07:04:02.481Z,99689.16
2023-04-15T07:06:47.504Z,99682.56
2023-04-15T07:09:32.580Z,99697.41
2023-04-15T07:12:17.914Z,99694.84
2023-04-15T07:15:03.467Z,99697.59
2023-04-15T07:17:48.636Z,99694.13
2023-04-15T07:20:33.676Z,99698.66
2023-04-15T07:23:18.963Z,99707.13
2023-04-15T07:26:04.172Z,99705.91
2023-04-15T07:28:49.470Z,99707.22
2023-04-15T07:31:34.704Z,99712.41
2023-04-15T07:34:20.019Z,99695.13
2023-04-15T07:37:05.532Z,99693.84
2023-04-15T07:39:50.862Z,99695.25
2023-04-15T07:42:36.367Z,99698.44
2023-04-15T07:45:21.401Z,99703.56
2023-04-15T07:48:06.505Z,99707.44
2023-04-15T07:50:51.818Z,99704.13
2023-04-15T07:53:36.891Z,99703.41
2023-04-15T07:56:22.054Z,99700.56
2023-04-15T07:59:07.579Z,99696.91
2023-04-15T08:01:52.867Z,99700.94
2023-04-15T08:04:38.320Z,99698.19
2023-04-15T08:07:23.719Z,99696.91
2023-04-15T08:10:09.095Z,99702.38
2023-04-15T08:12:54.689Z,99714.84
2023-04-15T08:15:39.813Z,99719.31
2023-04-15T08:18:25.048Z,99702.66
2023-04-15T08:21:10.757Z,99698.13
2023-04-15T08:23:56.568Z,99695.34
2023-04-15T08:26:41.414Z,99697.16
2023-04-15T08:29:26.830Z,99692.69
2023-04-15T08:32:12.423Z,99703.69
2023-04-15T08:34:57.504Z,99704.41
2023-04-15T08:37:42.784Z,99687.84
2023-04-15T08:40:42.920Z,99691.81
2023-04-15T08:43:33.650Z,99695.22
2023-04-15T08:46:19.472Z,99703.38
2023-04-15T08:49:05.753Z,99705.91
2023-04-15T08:51:50.871Z,99723.91
2023-04-15T08:54:37.353Z,99696.28
2023-04-15T08:57:26.852Z,99693.19
2023-04-15T09:00:12.533Z,99694.53
2023-04-15T09:02:59.392Z,99693.78
2023-04-15T09:05:44.587Z,99709.34
2023-04-15T09:08:29.727Z,99697.41
2023-04-15T09:11:14.743Z,99704.94
2023-04-15T09:13:59.991Z,99704.53
2023-04-15T09:17:03.516Z,99715.94
2023-04-15T09:20:07.439Z,99718.69
2023-04-15T09:22:52.742Z,99710.50
2023-04-15T09:25:39.812Z,99711.28
2023-04-15T09:28:25.558Z,99715.47
2023-04-15T09:31:13.756Z,99716.88
2023-04-15T09:33:58.781Z,99722.50
2023-04-15T09:36:54.457Z,99724.16
2023-04-15T09:39:47.231Z,99722.06
2023-04-15T09:42:32.526Z,99726.50
2023-04-15T09:45:17.659Z,99715.41
2023-04-15T09:48:23.000Z,99704.91
2023-04-15T09:51:08.200Z,99703.50
2023-04-15T09:53:54.886Z,99693.41
2023-04-15T09:56:40.161Z,99691.75
2023-04-15T09:59:25.317Z,99689.81
2023-04-15T10:02:13.583Z,99699.91
2023-04-15T10:05:00.025Z,99688.69
2023-04-15T10:07:45.976Z,99703.69
2023-04-15T10:10:31.485Z,99702.19
2023-04-15T10:13:19.072Z,99692.84
2023-04-15T10:16:14.292Z,99683.19
2023-04-15T10:19:01.976Z,99673.53
2023-04-15T10:21:47.272Z,99673.31
2023-04-15T10:24:33.581Z,99676.56
2023-04-15T10:27:19.920Z,99682.34
2023-04-15T10:30:06.106Z,99689.25
2023-04-15T10:32:52.148Z,99684.22
2023-04-15T10:35:37.869Z,99685.88
2023-04-15T10:38:38.272Z,99687.81
2023-04-15T10:41:27.810Z,99692.66
2023-04-15T10:44:13.172Z,99699.19
2023-04-15T10:46:58.801Z,99701.66
2023-04-15T10:50:08.102Z,99700.44
2023-04-15T10:52:53.206Z,99698.59
2023-04-15T10:55:38.522Z,99705.63
2023-04-15T10:58:25.553Z,99703.59
2023-04-15T11:01:10.978Z,99697.22
2023-04-15T11:03:56.124Z,99692.81
2023-04-15T11:06:44.968Z,99680.94
2023-04-15T11:09:33.472Z,99689.25
2023-04-15T11:12:19.370Z,99700.81
2023-04-15T11:15:28.146Z,99698.22
2023-04-15T11:18:14.357Z,99694.22
2023-04-15T11:21:07.644Z,99698.63
2023-04-15T11:23:52.828Z,99701.84
2023-04-15T11:26:37.881Z,99689.34
2023-04-15T11:29:23.095Z,99690.88
2023-04-15T11:32:11.587Z,99701.25
2023-04-15T11:34:56.936Z,99698.34
2023-04-15T11:37:42.303Z,99697.16
2023-04-15T11:40:29.385Z,99704.50
2023-04-15T11:43:20.343Z,99707.75
2023-04-15T11:46:05.677Z,99703.72
2023-04-15T11:48:50.819Z,99708.03
2023-04-15T11:51:36.161Z,99711.19
2023-04-15T11:54:21.415Z,99705.56
2023-04-15T11:57:07.315Z,99701.00
2023-04-15T11:59:55.463Z,99689.50
2023-04-15T12:02:40.688Z,99691.88
2023-04-15T12:05:25.895Z,99680.13
2023-04-15T12:08:15.630Z,99684.34
2023-04-15T12:11:00.626Z,99681.38
2023-04-15T12:13:50.553Z,99675.72
2023-04-15T12:16:48.860Z,99669.25
2023-04-15T12:19:38.265Z,99655.84
2023-04-15T12:22:23.392Z,99661.75
2023-04-15T12:25:08.653Z,99663.28
2023-04-15T12:27:53.938Z,99663.06
2023-04-15T12:30:49.683Z,99673.25
2023-04-15T12:33:35.301Z,99669.81
2023-04-15T12:36:20.121Z,99673.66
2023-04-15T12:39:05.553Z,99680.22
2023-04-15T12:41:50.975Z,99671.94
2023-04-15T12:44:37.395Z,99678.09
2023-04-15T12:47:22.879Z,99670.13
2023-04-15T12:50:08.488Z,99675.97
2023-04-15T12:52:53.861Z,99672.13
2023-04-15T12:55:38.828Z,99660.66
2023-04-15T12:58:23.797Z,99663.19
2023-04-15T13:01:09.166Z,99667.59
2023-04-15T13:03:54.272Z,99663.88
2023-04-15T13:06:39.405Z,99655.53
2023-04-15T13:09:24.379Z,99652.69
2023-04-15T13:12:09.769Z,99649.50
2023-04-15T13:14:54.896Z,99651.84
2023-04-15T13:17:40.174Z,99646.13
2023-04-15T13:20:25.526Z,99640.22
2023-04-15T13:23:14.593Z,99643.78
2023-04-15T13:25:59.680Z,99648.88
2023-04-15T13:28:45.540Z,99651.88
2023-04-15T13:31:30.877Z,99649.78
2023-04-15T13:34:16.031Z,99650.06
2023-04-15T13:37:07.017Z,99644.75
2023-04-15T13:39:52.488Z,99648.03
2023-04-15T13:42:37.852Z,99648.09
2023-04-15T13:45:22.988Z,99650.97
2023-04-15T13:48:08.172Z,99636.53
2023-04-15T13:50:53.133Z,99639.13
2023-04-15T13:53:39.743Z,99645.84
2023-04-15T13:56:25.126Z,99642.34
2023-04-15T13:59:10.235Z,99640.53
2023-04-15T14:01:55.486Z,99638.53
2023-04-15T14:04:40.495Z,99638.09
2023-04-15T14:07:25.424Z,99641.06
2023-04-15T14:10:10.821Z,99644.88
2023-04-15T14:12:56.082Z,99639.47
2023-04-15T14:15:41.645Z,99634.66
2023-04-15T14:18:26.439Z,99635.44
2023-04-15T14:21:11.776Z,99642.81
2023-04-15T14:23:56.860Z,99645.56
2023-04-15T14:26:43.416Z,99647.44
2023-04-15T14:29:28.951Z,99645.16
2023-04-15T14:32:15.228Z,99646.75
2023-04-15T14:35:01.589Z,99644.47
2023-04-15T14:37:55.398Z,99642.94
2023-04-15T14:40:44.479Z,99635.09
2023-04-15T14:43:29.794Z,99636.25
2023-04-15T14:46:15.299Z,99637.97
2023-04-15T14:49:00.372Z,99644.00
2023-04-15T14:51:45.627Z,99639.22
2023-04-15T14:54:30.918Z,99639.59
2023-04-15T14:57:15.748Z,99635.66
2023-04-15T15:00:00.613Z,99640.38
2023-04-15T15:02:45.631Z,99641.50
2023-04-15T15:05:30.975Z,99637.34
2023-04-15T15:08:16.164Z,99649.53
2023-04-15T15:11:01.554Z,99637.19
2023-04-15T15:13:46.794Z,99638.56
2023-04-15T15:16:31.726Z,99634.41
2023-04-15T15:19:17.235Z,99634.72
2023-04-15T15:22:03.659Z,99627.00
2023-04-15T15:24:48.931Z,99629.16
2023-04-15T15:27:35.505Z,99630.94
2023-04-15T15:30:22.181Z,99630.09
2023-04-15T15:33:07.450Z,99623.13
2023-04-15T15:35:52.882Z,99627.72
2023-04-15T15:38:38.156Z,99623.22
2023-04-15T15:41:23.565Z,99627.38
2023-04-15T15:44:11.310Z,99624.31
2023-04-15T15:46:57.140Z,99625.78
2023-04-15T15:49:42.347Z,99627.50
2023-04-15T15:52:27.637Z,99620.91
2023-04-15T15:55:12.854Z,99622.38
2023-04-15T15:57:57.975Z,99628.31
2023-04-15T16:00:43.411Z,99619.69
2023-04-15T16:03:29.265Z,99620.25
2023-04-15T16:06:14.448Z,99625.09
2023-04-15T16:08:59.423Z,99619.66
2023-04-15T16:11:45.525Z,99622.81
2023-04-15T16:14:35.052Z,99621.09
2023-04-15T16:17:20.333Z,99627.31
2023-04-15T16:20:06.245Z,99622.66
2023-04-15T16:22:51.415Z,99623.44
2023-04-15T16:25:36.657Z,99628.97
2023-04-15T16:28:26.821Z,99639.31
2023-04-15T16:31:12.431Z,99634.91
2023-04-15T16:33:58.075Z,99626.22
2023-04-15T16:36:43.071Z,99632.47
2023-04-15T16:39:28.127Z,99641.47
2023-04-15T16:42:13.203Z,99639.59
2023-04-15T16:44:58.337Z,99644.78
2023-04-15T16:47:43.594Z,99652.66
2023-04-15T16:50:28.947Z,99649.34
2023-04-15T16:53:17.282Z,99661.72
2023-04-15T16:56:02.461Z,99657.66
2023-04-15T16:58:47.491Z,99658.19
2023-04-15T17:01:33.805Z,99662.44
2023-04-15T17:04:19.200Z,99668.47
2023-04-15T17:07:04.447Z,99674.00
2023-04-15T17:09:49.664Z,99676.94
2023-04-15T17:12:34.977Z,99676.63
2023-04-15T17:15:20.326Z,99679.13
2023-04-15T17:18:05.610Z,99680.34
2023-04-15T17:20:50.596Z,99687.34
2023-04-15T17:23:35.816Z,99675.13
2023-04-15T17:26:21.066Z,99686.00
2023-04-15T17:29:06.348Z,99681.69
2023-04-15T17:31:51.876Z,99695.69
2023-04-15T17:34:50.736Z,99693.31
2023-04-15T17:37:36.598Z,99707.41
2023-04-15T17:40:21.660Z,99708.13
2023-04-15T17:43:06.730Z,99706.41
2023-04-15T17:45:51.836Z,99720.97
2023-04-15T17:48:37.067Z,99721.94
2023-04-15T17:51:28.616Z,99730.53
2023-04-15T17:54:13.915Z,99731.03
2023-04-15T17:56:58.975Z,99735.66
2023-04-15T17:59:44.021Z,99736.88
2023-04-15T18:02:29.540Z,99740.56
2023-04-15T18:05:14.982Z,99741.03
2023-04-15T18:08:00.241Z,99740.69
2023-04-15T18:10:48.368Z,99746.03
2023-04-15T18:13:36.917Z,99750.00
2023-04-15T18:16:22.708Z,99762.75
2023-04-15T18:19:07.667Z,99768.16
2023-04-15T18:21:53.122Z,99764.75
2023-04-15T18:24:44.552Z,99772.84
2023-04-15T18:27:33.796Z,99778.81
2023-04-15T18:30:19.247Z,99773.28
2023-04-15T18:33:04.461Z,99786.28
2023-04-15T18:35:50.248Z,99794.38
2023-04-15T18:38:35.223Z,99792.13
2023-04-15T18:41:20.535Z,99784.53
2023-04-15T18:44:05.533Z,99793.88
2023-04-15T18:46:50.698Z,99788.94
2023-04-15T18:49:36.367Z,99791.19
2023-04-15T18:52:21.474Z,99793.56
2023-04-15T18:55:07.177Z,99794.81
2023-04-15T18:57:52.116Z,99805.09
2023-04-15T19:00:37.291Z,99803.16
2023-04-15T19:03:22.495Z,99799.41
2023-04-15T19:06:07.847Z,99803.50
2023-04-15T19:08:55.140Z,99801.94
2023-04-15T19:11:40.378Z,99799.56
2023-04-15T19:14:25.882Z,99791.56
2023-04-15T19:17:11.028Z,99796.94
2023-04-15T19:19:56.195Z,99788.31
2023-04-15T19:22:41.588Z,99790.66
2023-04-15T19:25:26.690Z,99788.06
2023-04-15T19:28:11.894Z,99793.44
2023-04-15T19:30:57.930Z,99789.25
2023-04-15T19:33:43.404Z,99785.78
2023-04-15T19:36:28.340Z,99791.00
2023-04-15T19:39:13.174Z,99790.19
2023-04-15T19:41:58.585Z,99789.81
2023-04-15T19:44:43.794Z,99794.59
2023-04-15T19:47:29.175Z,99791.13
2023-04-15T19:50:14.312Z,99795.69
2023-04-15T19:52:59.591Z,99792.78
2023-04-15T19:55:44.812Z,99792.38
2023-04-15T19:58:29.801Z,99795.41
2023-04-15T20:01:15.102Z,99797.78
2023-04-15T20:04:00.640Z,99798.31
2023-04-15T20:06:46.317Z,99796.69
2023-04-15T20:09:31.452Z,99794.16
2023-04-15T20:12:50.509Z,99803.34
2023-04-15T20:15:22.067Z,99797.28
2023-04-15T20:18:07.307Z,99795.25
2023-04-15T20:20:52.551Z,99788.66
2023-04-15T20:23:37.900Z,99789.25
2023-04-15T20:26:22.816Z,99790.84
2023-04-15T20:29:08.080Z,99788.75
2023-04-15T20:31:53.712Z,99779.53
2023-04-15T20:34:39.096Z,99787.41
2023-04-15T20:37:24.190Z,99790.47
2023-04-15T20:40:09.544Z,99794.69
2023-04-15T20:42:54.523Z,99787.53
2023-04-15T20:45:39.872Z,99785.78
2023-04-15T20:48:25.266Z,99789.34
2023-04-15T20:51:10.404Z,99791.81
2023-04-15T20:53:55.674Z,99787.13
2023-04-15T20:56:40.782Z,99781.00
2023-04-15T20:59:25.790Z,99779.13
2023-04-15T21:02:11.193Z,99770.25
2023-04-15T21:04:56.318Z,99775.88
2023-04-15T21:07:41.609Z,99774.44
2023-04-15T21:10:26.396Z,99777.41
2023-04-15T21:13:11.642Z,99779.63
2023-04-15T21:15:56.980Z,99780.22
2023-04-15T21:18:41.859Z,99779.63
2023-04-15T21:21:27.254Z,99788.34
2023-04-15T21:24:12.060Z,99788.88
2023-04-15T21:26:56.972Z,99783.25
2023-04-15T21:29:42.382Z,99784.59
2023-04-15T21:32:27.653Z,99783.72
2023-04-15T21:35:13.223Z,99781.03
2023-04-15T21:37:58.508Z,99784.09
2023-04-15T21:40:43.546Z,99787.78
2023-04-15T21:43:28.783Z,99796.91
2023-04-15T21:46:22.129Z,99795.31
2023-04-15T21:49:10.459Z,99795.22
2023-04-15T21:51:55.712Z,99790.97
2023-04-15T21:54:40.773Z,99783.97
2023-04-15T21:57:25.967Z,99779.81
2023-04-15T22:00:11.547Z,99794.50
2023-04-15T22:02:56.733Z,99791.44
2023-04-15T22:05:45.344Z,99787.28
2023-04-15T22:08:36.044Z,99795.34
2023-04-15T22:11:29.732Z,99790.47
2023-04-15T22:14:14.997Z,99787.38
2023-04-15T22:17:00.378Z,99791.78
2023-04-15T22:19:45.832Z,99791.75
2023-04-15T22:22:43.212Z,99791.44
2023-04-15T22:25:29.897Z,99790.81
2023-04-15T22:28:14.995Z,99792.16
2023-04-15T22:31:00.131Z,99796.31
2023-04-15T22:33:45.493Z,99800.22
2023-04-15T22:36:30.794Z,99798.91
2023-04-15T22:39:15.878Z,99798.16
2023-04-15T22:42:00.977Z,99803.78
2023-04-15T22:44:46.216Z,99791.16
2023-04-15T22:47:31.045Z,99791.09
2023-04-15T22:50:16.676Z,99795.00
2023-04-15T22:53:01.720Z,99787.81
2023-04-15T22:55:48.262Z,99797.19
2023-04-15T22:58:33.250Z,99802.91
2023-04-15T23:01:18.846Z,99800.13
2023-04-15T23:04:07.655Z,99792.44
2023-04-15T23:06:55.815Z,99807.72
2023-04-15T23:09:40.645Z,99804.56
2023-04-15T23:12:25.812Z,99808.66
2023-04-15T23:15:11.348Z,99800.72
2023-04-15T23:17:56.320Z,99812.94
2023-04-15T23:20:41.628Z,99826.78
2023-04-15T23:23:27.021Z,99825.44
2023-04-15T23:26:12.195Z,99824.41
2023-04-15T23:28:57.479Z,99830.22
2023-04-15T23:31:42.802Z,99820.19
2023-04-15T23:34:28.190Z,99823.00
2023-04-15T23:37:13.187Z,99819.13
2023-04-15T23:39:58.119Z,99817.22
2023-04-15T23:42:43.305Z,99821.25
2023-04-15T23:45:12.710Z,99818.06
2023-04-15T23:47:40.437Z,99812.28
2023-04-15T23:50:08.656Z,99808.16
2023-04-15T23:52:36.388Z,99820.25
2023-04-15T23:55:04.179Z,99811.84
2023-04-15T23:57:32.573Z,99810.13
